Time;durP1;ratioP1;P1;durP2;ratioP2;P2;SDS_P1;SDS_P2;PMS_P1;PMS_P2;Temp;Humidity;BMP_temperature;BMP_pressure;BME280_temperature;BME280_humidity;BME280_pressure;Samples;Min_cycle;Max_cycle;Signal;HPM_P1;HPM_P2
2022/03/06 00:09:35;;;;;;;7.28;3.25;;;2.70;99.90;;;;;;20496212;28;20496;-46
2022/03/06 00:19:36;;;;;;;10.48;3.17;;;2.70;99.90;;;;;;20576101;28;20065;-46
2022/03/06 00:29:37;;;;;;;11.50;2.95;;;2.60;99.90;;;;;;20586908;28;20042;-46
2022/03/06 00:39:38;;;;;;;12.50;2.97;;;2.50;99.90;;;;;;20577431;28;20497;-46
2022/03/06 00:49:40;;;;;;;12.65;2.63;;;2.40;99.90;;;;;;20595575;28;20050;-46
2022/03/06 00:59:41;;;;;;;10.80;4.55;;;2.40;99.90;;;;;;20564829;28;20039;-46
2022/03/06 01:09:43;;;;;;;8.55;2.42;;;2.20;99.90;;;;;;20505220;28;20110;-46
2022/03/06 01:19:44;;;;;;;10.95;2.72;;;2.10;99.90;;;;;;20496265;28;20039;-46
2022/03/06 01:29:46;;;;;;;9.27;2.25;;;2.10;99.90;;;;;;20509607;28;20306;-46
2022/03/06 01:39:47;;;;;;;6.53;2.65;;;2.10;99.90;;;;;;20499670;28;20413;-46
2022/03/06 01:49:48;;;;;;;7.10;2.95;;;2.20;99.90;;;;;;20509213;28;20050;-46
2022/03/06 01:59:50;;;;;;;9.93;2.97;;;2.40;99.90;;;;;;20596722;28;20494;-46
2022/03/06 02:09:52;;;;;;;8.05;2.42;;;2.50;99.90;;;;;;20588704;28;20031;-46
2022/03/06 02:19:55;;;;;;;9.10;2.05;;;2.60;99.90;;;;;;20512090;28;20450;-46
2022/03/06 02:29:57;;;;;;;6.22;1.95;;;2.60;99.90;;;;;;20511073;28;20109;-46
2022/03/06 02:40:06;;;;;;;8.20;3.10;;;2.60;99.90;;;;;;20514577;28;20536;-46
2022/03/06 02:50:11;;;;;;;8.73;2.60;;;2.50;99.90;;;;;;20503324;28;20056;-46
2022/03/06 03:00:15;;;;;;;6.53;2.63;;;2.40;99.90;;;;;;20536454;28;20039;-46
2022/03/06 03:10:22;;;;;;;9.90;2.40;;;2.20;99.90;;;;;;20587026;28;20528;-46
2022/03/06 03:20:23;;;;;;;11.77;3.33;;;2.10;99.90;;;;;;20592336;28;20065;-46
2022/03/06 03:40:40;;;;;;;7.20;2.92;;;1.80;99.90;;;;;;20972570;23;20575;-45
2022/03/06 03:50:41;;;;;;;6.57;2.35;;;1.80;99.90;;;;;;20517758;28;20128;-45
2022/03/06 04:00:44;;;;;;;8.80;3.00;;;1.70;99.90;;;;;;20572429;28;20047;-45
2022/03/06 04:10:45;;;;;;;11.50;3.72;;;1.70;99.90;;;;;;20582431;28;20055;-45
2022/03/06 04:20:46;;;;;;;8.60;3.20;;;1.70;99.90;;;;;;20499309;28;20039;-45
2022/03/06 04:30:47;;;;;;;8.43;3.30;;;1.60;99.90;;;;;;20504147;28;20042;-45
2022/03/06 04:40:48;;;;;;;8.60;3.08;;;1.60;99.90;;;;;;20540673;28;20051;-45
2022/03/06 04:50:54;;;;;;;12.50;3.67;;;1.50;99.90;;;;;;20562327;28;20041;-45
2022/03/06 05:00:55;;;;;;;7.63;2.88;;;1.40;99.90;;;;;;20553775;28;20054;-45
2022/03/06 05:10:56;;;;;;;14.23;3.50;;;1.40;99.90;;;;;;20514300;28;20043;-45
2022/03/06 05:20:59;;;;;;;10.07;3.33;;;1.30;99.90;;;;;;20482823;28;20518;-45
2022/03/06 05:31:00;;;;;;;7.53;2.80;;;1.30;99.90;;;;;;20485232;28;20039;-45
2022/03/06 05:41:01;;;;;;;8.93;3.20;;;1.20;99.90;;;;;;20505752;28;20051;-45
2022/03/06 05:51:02;;;;;;;11.02;3.33;;;1.20;99.90;;;;;;20514318;28;20520;-45
2022/03/06 06:01:04;;;;;;;15.30;3.70;;;1.20;99.90;;;;;;20514537;28;20051;-45
2022/03/06 06:11:05;;;;;;;8.20;2.45;;;1.20;99.90;;;;;;20538156;28;20041;-45
2022/03/06 06:21:06;;;;;;;9.40;3.28;;;1.10;99.90;;;;;;20525576;28;20047;-45
2022/03/06 06:31:08;;;;;;;7.63;2.78;;;1.10;99.90;;;;;;20524482;28;20561;-45
2022/03/06 06:41:09;;;;;;;8.90;3.55;;;1.10;99.90;;;;;;20503654;28;20070;-45
2022/03/06 06:51:10;;;;;;;9.02;2.88;;;1.10;99.90;;;;;;20457207;28;20055;-45
2022/03/06 07:01:12;;;;;;;7.95;2.83;;;1.20;99.90;;;;;;20436600;28;20062;-45
2022/03/06 07:11:13;;;;;;;8.05;3.33;;;1.20;99.90;;;;;;20440150;28;20039;-45
2022/03/06 07:21:14;;;;;;;8.80;3.47;;;1.30;99.90;;;;;;20438638;28;20608;-45
2022/03/06 07:31:16;;;;;;;6.35;2.70;;;1.50;99.90;;;;;;20433531;28;20406;-45
2022/03/06 07:41:17;;;;;;;4.97;2.05;;;1.60;99.90;;;;;;20443228;28;20052;-45
2022/03/06 07:51:19;;;;;;;6.03;2.65;;;2.00;99.90;;;;;;20481158;28;20043;-45
2022/03/06 08:01:20;;;;;;;4.65;2.00;;;2.40;99.90;;;;;;20460828;28;20525;-45
2022/03/06 08:11:21;;;;;;;6.22;2.60;;;2.60;99.90;;;;;;20474052;28;20051;-45
2022/03/06 08:21:29;;;;;;;4.30;2.00;;;2.90;99.90;;;;;;20451071;28;20567;-45
2022/03/06 08:31:30;;;;;;;4.20;2.33;;;3.30;99.90;;;;;;20426555;28;20051;-45
2022/03/06 08:41:31;;;;;;;4.60;1.55;;;3.50;99.90;;;;;;20418013;28;20062;-45
2022/03/06 08:51:35;;;;;;;4.47;1.48;;;3.80;99.90;;;;;;20423385;28;20040;-45
2022/03/06 09:01:36;;;;;;;3.03;1.20;;;4.00;99.90;;;;;;20413095;28;20209;-45
2022/03/06 09:11:37;;;;;;;2.83;1.23;;;4.30;99.90;;;;;;20411496;28;20062;-45
2022/03/06 09:21:40;;;;;;;3.95;1.50;;;4.60;99.90;;;;;;20412329;28;20047;-45
2022/03/06 09:31:42;;;;;;;3.47;1.55;;;4.70;99.90;;;;;;20403121;28;20059;-45
2022/03/06 09:41:43;;;;;;;2.53;1.13;;;4.90;99.90;;;;;;20405364;28;20051;-45
2022/03/06 09:51:44;;;;;;;2.53;1.08;;;5.00;99.90;;;;;;20413196;28;20048;-45
2022/03/06 10:01:46;;;;;;;3.20;1.83;;;5.10;99.90;;;;;;20410688;28;20048;-45
2022/03/06 10:11:47;;;;;;;2.90;1.30;;;5.20;99.90;;;;;;20420879;28;20506;-45
2022/03/06 10:21:48;;;;;;;3.08;1.83;;;5.30;99.90;;;;;;20426782;28;20054;-45
2022/03/06 10:31:54;;;;;;;6.18;1.70;;;5.50;99.90;;;;;;20423232;28;20507;-45
2022/03/06 10:41:56;;;;;;;3.30;1.13;;;5.50;99.90;;;;;;20437857;28;20052;-45
2022/03/06 10:52:11;;;;;;;2.88;1.52;;;5.90;99.90;;;;;;20366615;28;20506;-45
2022/03/06 11:02:13;;;;;;;4.40;1.63;;;6.00;99.90;;;;;;20348890;28;20052;-45
2022/03/06 11:12:15;;;;;;;3.25;1.75;;;6.40;99.90;;;;;;20345981;28;20066;-45
2022/03/06 11:22:24;;;;;;;4.05;1.30;;;6.70;99.90;;;;;;20351490;28;20058;-46
2022/03/06 11:32:28;;;;;;;4.43;1.67;;;7.10;99.90;;;;;;20432214;28;20070;-46
2022/03/06 11:42:48;;;;;;;2.50;1.50;;;7.60;99.90;;;;;;20517906;28;20054;-46
2022/03/06 11:52:50;;;;;;;4.55;2.22;;;8.20;99.90;;;;;;20520276;28;20051;-46
2022/03/06 12:02:56;;;;;;;5.53;1.77;;;8.50;99.90;;;;;;20517772;28;20051;-46
2022/03/06 12:12:58;;;;;;;2.85;1.45;;;8.70;99.90;;;;;;20522413;28;20203;-46
2022/03/06 12:23:02;;;;;;;3.92;1.50;;;8.70;99.60;;;;;;20519390;28;20054;-46
2022/03/06 12:33:39;;;;;;;7.00;2.50;;;9.00;98.40;;;;;;20517354;28;20040;-46
2022/03/06 12:43:48;;;;;;;5.43;2.13;;;9.10;97.80;;;;;;20449927;28;20500;-46
2022/03/06 12:53:49;;;;;;;3.17;1.70;;;9.10;97.00;;;;;;20515863;28;20050;-46
2022/03/06 13:03:50;;;;;;;2.92;1.58;;;9.60;97.70;;;;;;20508043;28;20051;-46
2022/03/06 13:13:59;;;;;;;4.90;2.35;;;9.60;98.90;;;;;;20422537;28;20195;-46
2022/03/06 13:24:04;;;;;;;3.10;1.45;;;9.20;98.20;;;;;;20562828;28;20065;-46
2022/03/06 13:34:08;;;;;;;3.22;1.00;;;9.80;97.50;;;;;;20555482;28;20070;-46
2022/03/06 13:44:09;;;;;;;2.55;0.70;;;10.20;95.40;;;;;;20550125;28;20266;-46
2022/03/06 13:54:10;;;;;;;5.05;0.70;;;10.60;94.00;;;;;;20548848;28;20494;-46
2022/03/06 14:04:11;;;;;;;2.65;1.00;;;10.80;92.80;;;;;;20531188;28;20055;-46
2022/03/06 14:14:13;;;;;;;2.40;0.85;;;11.50;91.40;;;;;;20477366;28;20035;-46
2022/03/06 14:24:15;;;;;;;3.70;0.93;;;11.20;92.30;;;;;;20409685;28;20435;-46
2022/03/06 14:34:16;;;;;;;2.47;1.13;;;11.40;91.40;;;;;;20412170;28;20052;-46
2022/03/06 14:44:18;;;;;;;2.15;0.98;;;11.50;91.30;;;;;;20480264;28;20166;-46
2022/03/06 14:54:23;;;;;;;2.08;0.98;;;10.40;93.50;;;;;;20436604;28;20036;-46
2022/03/06 15:04:24;;;;;;;4.53;1.13;;;9.90;95.80;;;;;;20418058;28;20063;-46
2022/03/06 15:14:25;;;;;;;3.90;1.23;;;9.20;95.80;;;;;;20408416;28;20455;-46
2022/03/06 15:24:26;;;;;;;1.65;0.95;;;8.80;95.10;;;;;;20423842;28;20057;-46
2022/03/06 15:34:27;;;;;;;1.70;0.68;;;8.70;96.80;;;;;;20428074;28;20519;-46
2022/03/06 15:44:29;;;;;;;4.85;1.17;;;8.10;97.30;;;;;;20417298;28;20055;-46
2022/03/06 15:54:30;;;;;;;2.70;1.20;;;8.00;98.60;;;;;;20419669;28;20044;-46
2022/03/06 16:04:32;;;;;;;4.70;2.20;;;7.60;98.30;;;;;;20425756;28;20491;-46
2022/03/06 16:14:33;;;;;;;2.15;0.68;;;7.40;99.90;;;;;;20426227;28;20043;-46
2022/03/06 16:24:36;;;;;;;2.35;0.70;;;7.20;99.90;;;;;;20436428;28;20050;-46
2022/03/06 16:34:37;;;;;;;4.45;1.00;;;7.00;99.90;;;;;;20429455;28;20047;-46
2022/03/06 16:44:39;;;;;;;3.03;1.15;;;6.90;99.90;;;;;;20433664;28;20639;-45
2022/03/06 16:54:44;;;;;;;4.05;1.10;;;6.90;99.90;;;;;;20439720;28;20039;-46
2022/03/06 17:04:45;;;;;;;3.08;1.40;;;6.60;99.90;;;;;;20423909;28;20051;-46
2022/03/06 17:14:46;;;;;;;3.33;1.77;;;6.50;99.90;;;;;;20424746;28;20039;-46
2022/03/06 17:24:47;;;;;;;2.60;0.93;;;6.40;99.90;;;;;;20434452;28;20420;-46
2022/03/06 17:34:48;;;;;;;5.03;1.00;;;6.40;99.90;;;;;;20446116;28;20511;-46
2022/03/06 17:44:49;;;;;;;2.55;0.80;;;6.20;99.90;;;;;;20467107;28;20047;-46
2022/03/06 17:54:50;;;;;;;2.25;0.95;;;6.10;99.90;;;;;;20460982;28;20039;-46
2022/03/06 18:04:52;;;;;;;2.42;0.80;;;6.10;99.90;;;;;;20459751;28;20529;-46
2022/03/06 18:14:56;;;;;;;5.55;1.90;;;5.90;99.90;;;;;;20466064;28;20131;-46
2022/03/06 18:24:58;;;;;;;4.57;1.20;;;5.80;99.90;;;;;;20457097;28;20051;-46
2022/03/06 18:34:59;;;;;;;2.25;0.95;;;5.60;99.90;;;;;;20469763;28;20061;-46
2022/03/06 18:45:01;;;;;;;2.65;0.95;;;5.50;99.90;;;;;;20462709;28;20439;-46
2022/03/06 18:55:03;;;;;;;3.33;1.20;;;5.50;99.90;;;;;;20461732;28;20558;-46
2022/03/06 19:05:04;;;;;;;3.33;1.30;;;5.50;99.90;;;;;;20466005;28;20054;-46
2022/03/06 19:15:06;;;;;;;1.63;1.02;;;5.50;99.90;;;;;;20451162;28;20411;-45
2022/03/06 19:25:08;;;;;;;3.83;1.42;;;5.50;99.90;;;;;;20449947;28;20051;-46
2022/03/06 19:35:09;;;;;;;2.15;1.35;;;5.40;99.90;;;;;;20453963;28;20047;-46
2022/03/06 19:45:15;;;;;;;2.90;0.77;;;5.40;99.90;;;;;;20400449;28;20051;-46
2022/03/06 19:55:16;;;;;;;2.50;1.15;;;5.30;99.90;;;;;;20408448;28;20043;-46
2022/03/06 20:05:17;;;;;;;3.85;1.52;;;5.10;99.90;;;;;;20462534;28;20403;-46
2022/03/06 20:15:19;;;;;;;4.28;1.50;;;5.00;99.90;;;;;;20455626;28;20046;-46
2022/03/06 20:25:20;;;;;;;8.68;1.98;;;4.80;99.90;;;;;;20525194;28;20050;-45
2022/03/06 20:35:21;;;;;;;4.75;1.80;;;4.60;99.90;;;;;;20444396;28;20066;-45
2022/03/06 20:45:22;;;;;;;2.92;1.33;;;4.40;99.90;;;;;;20501527;28;20058;-46
2022/03/06 20:55:23;;;;;;;5.05;1.80;;;4.20;99.90;;;;;;20493367;28;20043;-46
2022/03/06 21:05:24;;;;;;;2.28;1.05;;;3.90;99.90;;;;;;20489621;28;20047;-46
2022/03/06 21:15:27;;;;;;;8.48;1.75;;;3.80;99.90;;;;;;20492078;28;20094;-46
2022/03/06 21:25:28;;;;;;;3.53;1.55;;;3.60;99.90;;;;;;20469773;28;20039;-46
2022/03/06 21:35:30;;;;;;;5.18;1.35;;;3.40;99.90;;;;;;20467202;28;20051;-45
2022/03/06 21:45:32;;;;;;;3.85;1.77;;;3.30;99.90;;;;;;20416839;28;20066;-46
2022/03/06 21:55:33;;;;;;;6.40;1.23;;;3.20;99.90;;;;;;20416608;28;20044;-46
2022/03/06 22:05:34;;;;;;;3.38;1.35;;;3.20;99.90;;;;;;20412896;28;20044;-46
2022/03/06 22:15:36;;;;;;;5.10;1.77;;;3.20;99.90;;;;;;20420782;28;20066;-45
2022/03/06 22:25:37;;;;;;;8.25;2.40;;;3.30;99.90;;;;;;20418883;28;20512;-46
2022/03/06 22:35:38;;;;;;;3.95;1.70;;;3.30;99.90;;;;;;20430134;28;20062;-46
2022/03/06 22:45:39;;;;;;;4.55;1.70;;;3.40;99.90;;;;;;20456251;28;20054;-46
2022/03/06 22:55:41;;;;;;;6.15;1.40;;;3.50;99.90;;;;;;20450924;28;20040;-46
2022/03/06 23:16:02;;;;;;;4.55;1.42;;;3.70;99.90;;;;;;20455170;28;20035;-46
2022/03/06 23:26:04;;;;;;;4.88;1.08;;;3.60;99.90;;;;;;20461803;28;20073;-46
2022/03/06 23:36:07;;;;;;;3.33;1.50;;;3.50;99.90;;;;;;20434801;28;20046;-46
2022/03/06 23:46:08;;;;;;;6.75;0.93;;;3.40;99.90;;;;;;20445309;28;20101;-46
2022/03/06 23:56:09;;;;;;;2.35;0.82;;;3.20;99.90;;;;;;20438128;28;20407;-46
